sensor_id;sensor_type;location;lat;lon;timestamp;temperature;humidity
75387;DHT22;63966;47.914;22.266;2022-11-30T00:02:16;-0.10;87.37
75387;DHT22;63966;47.914;22.266;2022-11-30T00:05:20;-0.08;87.26
75387;DHT22;63966;47.914;22.266;2022-11-30T00:08:24;-0.10;87.21
75387;DHT22;63966;47.914;22.266;2022-11-30T00:11:31;-0.19;87.37
75387;DHT22;63966;47.914;22.266;2022-11-30T00:14:34;-0.22;87.40
75387;DHT22;63966;47.914;22.266;2022-11-30T00:17:42;-0.20;87.45
75387;DHT22;63966;47.914;22.266;2022-11-30T00:20:46;-0.26;87.50
75387;DHT22;63966;47.914;22.266;2022-11-30T00:23:50;-0.34;87.68
75387;DHT22;63966;47.914;22.266;2022-11-30T00:26:53;-0.36;87.82
75387;DHT22;63966;47.914;22.266;2022-11-30T00:29:58;-0.34;87.76
75387;DHT22;63966;47.914;22.266;2022-11-30T00:33:01;-0.30;87.49
75387;DHT22;63966;47.914;22.266;2022-11-30T00:36:11;-0.25;87.39
75387;DHT22;63966;47.914;22.266;2022-11-30T00:39:15;-0.30;87.39
75387;DHT22;63966;47.914;22.266;2022-11-30T00:42:18;-0.32;87.37
75387;DHT22;63966;47.914;22.266;2022-11-30T00:45:22;-0.39;87.46
75387;DHT22;63966;47.914;22.266;2022-11-30T00:48:26;-0.37;87.43
75387;DHT22;63966;47.914;22.266;2022-11-30T00:51:29;-0.41;87.34
75387;DHT22;63966;47.914;22.266;2022-11-30T00:54:32;-0.44;87.37
75387;DHT22;63966;47.914;22.266;2022-11-30T00:57:36;-0.49;87.40
75387;DHT22;63966;47.914;22.266;2022-11-30T01:00:39;-0.52;87.30
75387;DHT22;63966;47.914;22.266;2022-11-30T01:03:43;-0.49;87.29
75387;DHT22;63966;47.914;22.266;2022-11-30T01:06:47;-0.54;87.26
75387;DHT22;63966;47.914;22.266;2022-11-30T01:09:50;-0.57;87.33
75387;DHT22;63966;47.914;22.266;2022-11-30T01:12:54;-0.54;87.13
75387;DHT22;63966;47.914;22.266;2022-11-30T01:15:58;-0.56;86.98
75387;DHT22;63966;47.914;22.266;2022-11-30T01:19:02;-0.58;87.06
75387;DHT22;63966;47.914;22.266;2022-11-30T01:22:06;-0.56;86.86
75387;DHT22;63966;47.914;22.266;2022-11-30T01:25:09;-0.52;86.68
75387;DHT22;63966;47.914;22.266;2022-11-30T01:28:13;-0.53;86.71
75387;DHT22;63966;47.914;22.266;2022-11-30T01:31:17;-0.52;86.68
75387;DHT22;63966;47.914;22.266;2022-11-30T01:34:21;-0.53;86.68
75387;DHT22;63966;47.914;22.266;2022-11-30T01:37:24;-0.46;86.52
75387;DHT22;63966;47.914;22.266;2022-11-30T01:40:30;-0.46;86.36
75387;DHT22;63966;47.914;22.266;2022-11-30T01:47:11;-0.52;86.56
75387;DHT22;63966;47.914;22.266;2022-11-30T01:50:25;-0.50;86.42
75387;DHT22;63966;47.914;22.266;2022-11-30T01:53:29;-0.47;86.20
75387;DHT22;63966;47.914;22.266;2022-11-30T01:56:33;-0.47;86.18
75387;DHT22;63966;47.914;22.266;2022-11-30T01:59:37;-0.50;86.13
75387;DHT22;63966;47.914;22.266;2022-11-30T02:06:14;-0.52;86.19
75387;DHT22;63966;47.914;22.266;2022-11-30T02:09:19;-0.53;86.20
75387;DHT22;63966;47.914;22.266;2022-11-30T02:35:29;-0.66;86.20
75387;DHT22;63966;47.914;22.266;2022-11-30T02:38:34;-0.67;86.16
75387;DHT22;63966;47.914;22.266;2022-11-30T02:41:39;-0.67;86.00
75387;DHT22;63966;47.914;22.266;2022-11-30T02:44:47;-0.63;85.82
75387;DHT22;63966;47.914;22.266;2022-11-30T02:48:09;-0.63;85.68
75387;DHT22;63966;47.914;22.266;2022-11-30T02:51:17;-0.71;85.92
75387;DHT22;63966;47.914;22.266;2022-11-30T02:54:23;-0.71;85.92
75387;DHT22;63966;47.914;22.266;2022-11-30T02:57:26;-0.73;85.93
75387;DHT22;63966;47.914;22.266;2022-11-30T03:00:30;-0.73;85.88
75387;DHT22;63966;47.914;22.266;2022-11-30T03:03:34;-0.68;85.73
75387;DHT22;63966;47.914;22.266;2022-11-30T03:06:37;-0.71;85.65
75387;DHT22;63966;47.914;22.266;2022-11-30T03:09:41;-0.66;85.37
75387;DHT22;63966;47.914;22.266;2022-11-30T03:12:44;-0.67;85.21
75387;DHT22;63966;47.914;22.266;2022-11-30T03:15:48;-0.68;85.20
75387;DHT22;63966;47.914;22.266;2022-11-30T03:18:51;-0.66;85.10
75387;DHT22;63966;47.914;22.266;2022-11-30T03:21:54;-0.71;85.23
75387;DHT22;63966;47.914;22.266;2022-11-30T03:24:58;-0.75;85.31
75387;DHT22;63966;47.914;22.266;2022-11-30T03:28:01;-0.81;85.48
75387;DHT22;63966;47.914;22.266;2022-11-30T03:31:05;-0.78;85.56
75387;DHT22;63966;47.914;22.266;2022-11-30T03:34:09;-0.80;85.49
75387;DHT22;63966;47.914;22.266;2022-11-30T03:37:12;-0.81;85.62
75387;DHT22;63966;47.914;22.266;2022-11-30T03:40:16;-0.78;85.62
75387;DHT22;63966;47.914;22.266;2022-11-30T03:43:19;-0.80;85.58
75387;DHT22;63966;47.914;22.266;2022-11-30T03:46:23;-0.81;85.59
75387;DHT22;63966;47.914;22.266;2022-11-30T03:49:26;-0.83;85.74
75387;DHT22;63966;47.914;22.266;2022-11-30T03:52:30;-0.85;85.81
75387;DHT22;63966;47.914;22.266;2022-11-30T03:55:33;-0.85;85.96
75387;DHT22;63966;47.914;22.266;2022-11-30T03:58:38;-0.83;85.86
75387;DHT22;63966;47.914;22.266;2022-11-30T04:01:42;-0.83;85.94
75387;DHT22;63966;47.914;22.266;2022-11-30T04:04:45;-0.81;86.02
75387;DHT22;63966;47.914;22.266;2022-11-30T04:07:49;-0.83;86.05
75387;DHT22;63966;47.914;22.266;2022-11-30T04:10:57;-0.78;85.88
75387;DHT22;63966;47.914;22.266;2022-11-30T04:14:01;-0.80;85.87
75387;DHT22;63966;47.914;22.266;2022-11-30T04:17:04;-0.77;85.90
75387;DHT22;63966;47.914;22.266;2022-11-30T04:20:08;-0.80;86.10
75387;DHT22;63966;47.914;22.266;2022-11-30T04:23:12;-0.80;86.11
75387;DHT22;63966;47.914;22.266;2022-11-30T04:26:16;-0.77;86.06
75387;DHT22;63966;47.914;22.266;2022-11-30T04:29:20;-0.77;86.02
75387;DHT22;63966;47.914;22.266;2022-11-30T04:32:23;-0.83;86.19
75387;DHT22;63966;47.914;22.266;2022-11-30T04:35:27;-0.77;86.00
75387;DHT22;63966;47.914;22.266;2022-11-30T04:38:31;-0.80;86.00
75387;DHT22;63966;47.914;22.266;2022-11-30T04:41:35;-0.80;86.07
75387;DHT22;63966;47.914;22.266;2022-11-30T04:44:39;-0.80;86.11
75387;DHT22;63966;47.914;22.266;2022-11-30T04:47:42;-0.71;85.68
75387;DHT22;63966;47.914;22.266;2022-11-30T04:50:46;-0.68;85.49
75387;DHT22;63966;47.914;22.266;2022-11-30T04:53:49;-0.67;85.46
75387;DHT22;63966;47.914;22.266;2022-11-30T04:56:52;-0.67;85.36
75387;DHT22;63966;47.914;22.266;2022-11-30T04:59:56;-0.60;85.16
75387;DHT22;63966;47.914;22.266;2022-11-30T05:02:59;-0.60;85.08
75387;DHT22;63966;47.914;22.266;2022-11-30T05:06:03;-0.61;85.16
75387;DHT22;63966;47.914;22.266;2022-11-30T05:09:07;-0.57;85.01
75387;DHT22;63966;47.914;22.266;2022-11-30T05:12:10;-0.56;85.05
75387;DHT22;63966;47.914;22.266;2022-11-30T05:15:13;-0.54;84.95
75387;DHT22;63966;47.914;22.266;2022-11-30T05:18:17;-0.49;84.69
75387;DHT22;63966;47.914;22.266;2022-11-30T05:21:20;-0.47;84.65
75387;DHT22;63966;47.914;22.266;2022-11-30T05:24:24;-0.49;84.68
75387;DHT22;63966;47.914;22.266;2022-11-30T05:27:28;-0.50;84.76
75387;DHT22;63966;47.914;22.266;2022-11-30T05:30:32;-0.34;84.13
75387;DHT22;63966;47.914;22.266;2022-11-30T05:33:35;-0.30;83.74
75387;DHT22;63966;47.914;22.266;2022-11-30T05:36:39;-0.27;83.79
75387;DHT22;63966;47.914;22.266;2022-11-30T05:39:42;-0.39;83.89
75387;DHT22;63966;47.914;22.266;2022-11-30T05:42:45;-0.41;84.12
75387;DHT22;63966;47.914;22.266;2022-11-30T05:45:49;-0.34;83.83
75387;DHT22;63966;47.914;22.266;2022-11-30T05:48:52;-0.39;84.14
75387;DHT22;63966;47.914;22.266;2022-11-30T05:51:56;-0.41;84.15
75387;DHT22;63966;47.914;22.266;2022-11-30T05:54:59;-0.41;84.22
75387;DHT22;63966;47.914;22.266;2022-11-30T05:58:03;-0.44;84.37
75387;DHT22;63966;47.914;22.266;2022-11-30T06:01:06;-0.44;84.36
75387;DHT22;63966;47.914;22.266;2022-11-30T06:04:10;-0.44;84.36
75387;DHT22;63966;47.914;22.266;2022-11-30T06:07:13;-0.44;84.21
75387;DHT22;63966;47.914;22.266;2022-11-30T06:10:17;-0.34;83.98
75387;DHT22;63966;47.914;22.266;2022-11-30T06:13:20;-0.29;83.71
75387;DHT22;63966;47.914;22.266;2022-11-30T06:16:30;-0.18;83.45
75387;DHT22;63966;47.914;22.266;2022-11-30T06:19:34;-0.12;82.99
75387;DHT22;63966;47.914;22.266;2022-11-30T06:22:37;0.06;82.42
75387;DHT22;63966;47.914;22.266;2022-11-30T06:25:40;-0.03;82.87
75387;DHT22;63966;47.914;22.266;2022-11-30T06:28:44;0.09;82.59
75387;DHT22;63966;47.914;22.266;2022-11-30T06:31:50;0.16;82.56
75387;DHT22;63966;47.914;22.266;2022-11-30T06:34:54;0.36;81.83
75387;DHT22;63966;47.914;22.266;2022-11-30T06:37:57;0.39;81.76
75387;DHT22;63966;47.914;22.266;2022-11-30T06:41:07;0.53;81.64
75387;DHT22;63966;47.914;22.266;2022-11-30T06:44:11;0.69;80.51
75387;DHT22;63966;47.914;22.266;2022-11-30T06:47:15;0.73;80.46
75387;DHT22;63966;47.914;22.266;2022-11-30T06:50:20;0.77;80.31
75387;DHT22;63966;47.914;22.266;2022-11-30T06:53:23;0.83;79.90
75387;DHT22;63966;47.914;22.266;2022-11-30T06:56:27;0.97;79.58
75387;DHT22;63966;47.914;22.266;2022-11-30T06:59:30;0.99;79.33
75387;DHT22;63966;47.914;22.266;2022-11-30T07:02:35;0.97;79.51
75387;DHT22;63966;47.914;22.266;2022-11-30T07:05:43;1.01;79.47
75387;DHT22;63966;47.914;22.266;2022-11-30T07:08:47;1.02;79.52
75387;DHT22;63966;47.914;22.266;2022-11-30T07:11:52;0.94;79.37
75387;DHT22;63966;47.914;22.266;2022-11-30T07:14:56;1.07;79.52
75387;DHT22;63966;47.914;22.266;2022-11-30T07:18:00;1.17;79.03
75387;DHT22;63966;47.914;22.266;2022-11-30T07:21:05;1.22;78.63
75387;DHT22;63966;47.914;22.266;2022-11-30T07:24:11;1.28;78.88
75387;DHT22;63966;47.914;22.266;2022-11-30T07:27:33;1.42;78.35
75387;DHT22;63966;47.914;22.266;2022-11-30T07:30:37;1.49;78.47
75387;DHT22;63966;47.914;22.266;2022-11-30T07:33:41;1.47;78.63
75387;DHT22;63966;47.914;22.266;2022-11-30T07:36:45;1.36;79.19
75387;DHT22;63966;47.914;22.266;2022-11-30T07:39:49;1.32;79.28
75387;DHT22;63966;47.914;22.266;2022-11-30T07:42:54;1.32;79.32
75387;DHT22;63966;47.914;22.266;2022-11-30T07:45:58;1.36;79.36
75387;DHT22;63966;47.914;22.266;2022-11-30T07:49:07;1.47;79.13
75387;DHT22;63966;47.914;22.266;2022-11-30T07:52:11;1.46;79.51
75387;DHT22;63966;47.914;22.266;2022-11-30T07:55:14;1.60;79.25
75387;DHT22;63966;47.914;22.266;2022-11-30T07:58:18;1.74;78.86
75387;DHT22;63966;47.914;22.266;2022-11-30T08:01:24;1.73;78.38
75387;DHT22;63966;47.914;22.266;2022-11-30T08:04:27;1.71;78.33
75387;DHT22;63966;47.914;22.266;2022-11-30T08:07:31;1.83;78.51
75387;DHT22;63966;47.914;22.266;2022-11-30T08:10:34;1.84;78.54
75387;DHT22;63966;47.914;22.266;2022-11-30T08:13:38;1.97;78.56
75387;DHT22;63966;47.914;22.266;2022-11-30T08:16:41;2.00;77.56
75387;DHT22;63966;47.914;22.266;2022-11-30T08:19:46;2.03;77.31
75387;DHT22;63966;47.914;22.266;2022-11-30T08:22:49;2.07;77.16
75387;DHT22;63966;47.914;22.266;2022-11-30T08:25:55;1.98;77.93
75387;DHT22;63966;47.914;22.266;2022-11-30T08:28:59;1.95;78.30
75387;DHT22;63966;47.914;22.266;2022-11-30T08:32:03;1.97;78.45
75387;DHT22;63966;47.914;22.266;2022-11-30T08:35:07;2.05;78.82
75387;DHT22;63966;47.914;22.266;2022-11-30T08:38:11;2.05;78.55
75387;DHT22;63966;47.914;22.266;2022-11-30T08:41:19;2.08;78.68
75387;DHT22;63966;47.914;22.266;2022-11-30T08:44:23;2.14;78.60
75387;DHT22;63966;47.914;22.266;2022-11-30T08:47:28;2.20;78.48
75387;DHT22;63966;47.914;22.266;2022-11-30T08:50:32;2.29;78.38
75387;DHT22;63966;47.914;22.266;2022-11-30T08:53:37;2.36;77.29
75387;DHT22;63966;47.914;22.266;2022-11-30T08:56:40;2.49;76.91
75387;DHT22;63966;47.914;22.266;2022-11-30T08:59:44;2.54;76.84
75387;DHT22;63966;47.914;22.266;2022-11-30T09:02:48;2.79;77.51
75387;DHT22;63966;47.914;22.266;2022-11-30T09:05:52;2.89;76.02
75387;DHT22;63966;47.914;22.266;2022-11-30T09:08:57;2.94;76.05
75387;DHT22;63966;47.914;22.266;2022-11-30T09:12:01;3.15;75.19
75387;DHT22;63966;47.914;22.266;2022-11-30T09:15:06;3.49;75.02
75387;DHT22;63966;47.914;22.266;2022-11-30T09:18:09;3.36;75.13
75387;DHT22;63966;47.914;22.266;2022-11-30T09:21:17;3.36;74.38
75387;DHT22;63966;47.914;22.266;2022-11-30T09:24:21;3.29;73.80
75387;DHT22;63966;47.914;22.266;2022-11-30T09:27:24;3.35;74.78
75387;DHT22;63966;47.914;22.266;2022-11-30T09:30:32;3.48;74.48
75387;DHT22;63966;47.914;22.266;2022-11-30T09:33:37;3.65;74.16
75387;DHT22;63966;47.914;22.266;2022-11-30T09:36:41;3.69;73.41
75387;DHT22;63966;47.914;22.266;2022-11-30T09:39:45;3.55;74.26
75387;DHT22;63966;47.914;22.266;2022-11-30T09:46:37;3.76;74.09
75387;DHT22;63966;47.914;22.266;2022-11-30T09:49:45;3.79;74.09
75387;DHT22;63966;47.914;22.266;2022-11-30T09:53:05;3.83;74.01
75387;DHT22;63966;47.914;22.266;2022-11-30T09:56:37;3.80;74.18
75387;DHT22;63966;47.914;22.266;2022-11-30T09:59:45;3.91;73.88
75387;DHT22;63966;47.914;22.266;2022-11-30T10:02:52;4.00;73.73
75387;DHT22;63966;47.914;22.266;2022-11-30T10:23:33;4.13;73.64
75387;DHT22;63966;47.914;22.266;2022-11-30T10:26:44;4.10;73.51
75387;DHT22;63966;47.914;22.266;2022-11-30T10:29:57;4.33;73.77
75387;DHT22;63966;47.914;22.266;2022-11-30T10:33:21;4.56;72.46
75387;DHT22;63966;47.914;22.266;2022-11-30T10:36:53;4.65;74.42
75387;DHT22;63966;47.914;22.266;2022-11-30T10:46:38;4.71;72.19
75387;DHT22;63966;47.914;22.266;2022-11-30T10:49:47;4.73;72.49
75387;DHT22;63966;47.914;22.266;2022-11-30T10:52:54;4.77;70.62
75387;DHT22;63966;47.914;22.266;2022-11-30T10:56:11;4.72;70.98
75387;DHT22;63966;47.914;22.266;2022-11-30T10:59:25;4.75;71.12
75387;DHT22;63966;47.914;22.266;2022-11-30T11:02:44;4.93;70.89
75387;DHT22;63966;47.914;22.266;2022-11-30T11:06:21;4.96;70.75
75387;DHT22;63966;47.914;22.266;2022-11-30T11:09:52;4.89;71.24
75387;DHT22;63966;47.914;22.266;2022-11-30T11:12:56;4.87;71.23
75387;DHT22;63966;47.914;22.266;2022-11-30T11:16:01;4.94;70.18
75387;DHT22;63966;47.914;22.266;2022-11-30T11:19:23;4.96;70.54
75387;DHT22;63966;47.914;22.266;2022-11-30T11:22:29;5.04;71.04
75387;DHT22;63966;47.914;22.266;2022-11-30T11:25:36;4.87;71.68
75387;DHT22;63966;47.914;22.266;2022-11-30T11:28:44;4.89;72.22
75387;DHT22;63966;47.914;22.266;2022-11-30T11:31:48;4.85;71.76
75387;DHT22;63966;47.914;22.266;2022-11-30T11:34:52;4.82;72.17
75387;DHT22;63966;47.914;22.266;2022-11-30T11:37:55;4.75;72.51
75387;DHT22;63966;47.914;22.266;2022-11-30T11:41:10;5.04;71.76
75387;DHT22;63966;47.914;22.266;2022-11-30T11:44:20;5.06;71.78
75387;DHT22;63966;47.914;22.266;2022-11-30T11:47:44;5.17;72.63
75387;DHT22;63966;47.914;22.266;2022-11-30T11:51:06;5.16;71.73
75387;DHT22;63966;47.914;22.266;2022-11-30T11:57:50;5.27;71.50
75387;DHT22;63966;47.914;22.266;2022-11-30T12:00:56;5.24;71.15
75387;DHT22;63966;47.914;22.266;2022-11-30T12:07:44;5.27;72.56
75387;DHT22;63966;47.914;22.266;2022-11-30T12:11:24;5.21;72.13
75387;DHT22;63966;47.914;22.266;2022-11-30T12:14:30;5.33;71.92
75387;DHT22;63966;47.914;22.266;2022-11-30T12:17:52;5.23;71.82
75387;DHT22;63966;47.914;22.266;2022-11-30T12:21:08;5.27;72.03
75387;DHT22;63966;47.914;22.266;2022-11-30T12:24:42;5.31;70.90
75387;DHT22;63966;47.914;22.266;2022-11-30T12:28:16;5.20;71.42
75387;DHT22;63966;47.914;22.266;2022-11-30T12:31:28;5.23;71.96
75387;DHT22;63966;47.914;22.266;2022-11-30T12:34:43;5.13;72.44
75387;DHT22;63966;47.914;22.266;2022-11-30T12:48:00;5.21;72.48
75387;DHT22;63966;47.914;22.266;2022-11-30T12:51:32;5.14;72.87
75387;DHT22;63966;47.914;22.266;2022-11-30T13:01:43;5.24;71.51
75387;DHT22;63966;47.914;22.266;2022-11-30T13:05:03;5.24;71.46
75387;DHT22;63966;47.914;22.266;2022-11-30T13:08:25;5.26;72.67
75387;DHT22;63966;47.914;22.266;2022-11-30T13:11:37;5.31;72.21
75387;DHT22;63966;47.914;22.266;2022-11-30T13:14:41;5.37;71.52
75387;DHT22;63966;47.914;22.266;2022-11-30T13:17:46;5.38;71.85
75387;DHT22;63966;47.914;22.266;2022-11-30T13:24:21;5.41;72.62
75387;DHT22;63966;47.914;22.266;2022-11-30T13:27:40;5.33;72.64
75387;DHT22;63966;47.914;22.266;2022-11-30T13:31:28;5.38;72.48
75387;DHT22;63966;47.914;22.266;2022-11-30T13:34:39;5.26;73.32
75387;DHT22;63966;47.914;22.266;2022-11-30T13:37:44;5.30;73.01
75387;DHT22;63966;47.914;22.266;2022-11-30T13:41:24;5.30;72.92
75387;DHT22;63966;47.914;22.266;2022-11-30T13:44:39;5.31;72.69
75387;DHT22;63966;47.914;22.266;2022-11-30T13:47:51;5.23;73.61
75387;DHT22;63966;47.914;22.266;2022-11-30T13:50:55;5.16;73.76
75387;DHT22;63966;47.914;22.266;2022-11-30T14:01:25;5.04;73.54
75387;DHT22;63966;47.914;22.266;2022-11-30T14:04:31;4.94;73.96
75387;DHT22;63966;47.914;22.266;2022-11-30T14:07:38;4.87;74.30
75387;DHT22;63966;47.914;22.266;2022-11-30T14:10:45;4.83;74.29
75387;DHT22;63966;47.914;22.266;2022-11-30T14:13:49;4.69;74.62
75387;DHT22;63966;47.914;22.266;2022-11-30T14:16:53;4.66;74.68
75387;DHT22;63966;47.914;22.266;2022-11-30T14:20:13;4.59;74.85
75387;DHT22;63966;47.914;22.266;2022-11-30T14:26:47;4.41;75.39
75387;DHT22;63966;47.914;22.266;2022-11-30T14:29:55;4.35;75.64
75387;DHT22;63966;47.914;22.266;2022-11-30T14:33:10;4.24;75.85
75387;DHT22;63966;47.914;22.266;2022-11-30T14:36:24;4.11;76.49
75387;DHT22;63966;47.914;22.266;2022-11-30T14:39:40;4.04;76.54
75387;DHT22;63966;47.914;22.266;2022-11-30T14:42:50;4.00;76.54
75387;DHT22;63966;47.914;22.266;2022-11-30T14:46:03;3.90;76.68
75387;DHT22;63966;47.914;22.266;2022-11-30T14:49:15;3.86;76.86
75387;DHT22;63966;47.914;22.266;2022-11-30T14:59:32;3.69;77.39
75387;DHT22;63966;47.914;22.266;2022-11-30T15:02:38;3.54;77.71
75387;DHT22;63966;47.914;22.266;2022-11-30T15:05:42;3.49;77.81
75387;DHT22;63966;47.914;22.266;2022-11-30T15:08:51;3.31;78.46
75387;DHT22;63966;47.914;22.266;2022-11-30T15:11:55;3.22;78.94
75387;DHT22;63966;47.914;22.266;2022-11-30T15:18:18;3.00;79.60
75387;DHT22;63966;47.914;22.266;2022-11-30T15:21:23;2.89;79.94
75387;DHT22;63966;47.914;22.266;2022-11-30T15:24:27;2.91;79.77
75387;DHT22;63966;47.914;22.266;2022-11-30T15:27:32;2.84;79.84
75387;DHT22;63966;47.914;22.266;2022-11-30T15:30:37;2.82;79.86
75387;DHT22;63966;47.914;22.266;2022-11-30T15:33:46;2.75;80.16
75387;DHT22;63966;47.914;22.266;2022-11-30T15:36:53;2.66;80.53
75387;DHT22;63966;47.914;22.266;2022-11-30T15:40:00;2.63;80.59
75387;DHT22;63966;47.914;22.266;2022-11-30T15:43:04;2.59;81.04
75387;DHT22;63966;47.914;22.266;2022-11-30T15:49:33;2.45;81.60
75387;DHT22;63966;47.914;22.266;2022-11-30T15:52:43;2.38;82.11
75387;DHT22;63966;47.914;22.266;2022-11-30T15:55:49;2.31;82.45
75387;DHT22;63966;47.914;22.266;2022-11-30T15:59:04;2.20;82.72
75387;DHT22;63966;47.914;22.266;2022-11-30T16:02:46;2.18;82.82
75387;DHT22;63966;47.914;22.266;2022-11-30T16:05:58;2.15;82.73
75387;DHT22;63966;47.914;22.266;2022-11-30T16:09:20;2.07;82.87
75387;DHT22;63966;47.914;22.266;2022-11-30T16:12:29;2.01;83.01
75387;DHT22;63966;47.914;22.266;2022-11-30T16:15:34;1.98;82.91
75387;DHT22;63966;47.914;22.266;2022-11-30T16:18:38;1.87;83.20
75387;DHT22;63966;47.914;22.266;2022-11-30T16:21:41;1.81;83.32
75387;DHT22;63966;47.914;22.266;2022-11-30T16:24:45;1.80;83.34
75387;DHT22;63966;47.914;22.266;2022-11-30T16:27:49;1.74;83.41
75387;DHT22;63966;47.914;22.266;2022-11-30T16:30:55;1.68;83.67
75387;DHT22;63966;47.914;22.266;2022-11-30T16:34:00;1.62;84.07
75387;DHT22;63966;47.914;22.266;2022-11-30T16:37:04;1.57;84.47
75387;DHT22;63966;47.914;22.266;2022-11-30T16:40:08;1.50;84.73
75387;DHT22;63966;47.914;22.266;2022-11-30T16:43:13;1.45;85.04
75387;DHT22;63966;47.914;22.266;2022-11-30T16:46:22;1.35;85.43
75387;DHT22;63966;47.914;22.266;2022-11-30T16:49:26;1.40;85.16
75387;DHT22;63966;47.914;22.266;2022-11-30T16:52:29;1.42;85.20
75387;DHT22;63966;47.914;22.266;2022-11-30T16:55:34;1.40;85.30
75387;DHT22;63966;47.914;22.266;2022-11-30T16:58:40;1.45;85.07
75387;DHT22;63966;47.914;22.266;2022-11-30T17:01:47;1.36;85.11
75387;DHT22;63966;47.914;22.266;2022-11-30T17:04:55;1.32;85.42
75387;DHT22;63966;47.914;22.266;2022-11-30T17:07:58;1.28;85.47
75387;DHT22;63966;47.914;22.266;2022-11-30T17:11:02;1.34;85.19
75387;DHT22;63966;47.914;22.266;2022-11-30T17:14:06;1.32;85.10
75387;DHT22;63966;47.914;22.266;2022-11-30T17:17:09;1.26;85.26
75387;DHT22;63966;47.914;22.266;2022-11-30T17:20:14;1.24;85.18
75387;DHT22;63966;47.914;22.266;2022-11-30T17:23:18;1.21;85.08
75387;DHT22;63966;47.914;22.266;2022-11-30T17:26:22;1.24;84.82
75387;DHT22;63966;47.914;22.266;2022-11-30T17:29:26;1.32;84.37
75387;DHT22;63966;47.914;22.266;2022-11-30T17:32:30;1.29;84.32
75387;DHT22;63966;47.914;22.266;2022-11-30T17:35:36;1.26;84.44
75387;DHT22;63966;47.914;22.266;2022-11-30T17:38:40;1.19;84.46
75387;DHT22;63966;47.914;22.266;2022-11-30T17:41:47;1.26;84.29
75387;DHT22;63966;47.914;22.266;2022-11-30T17:44:51;1.29;83.88
75387;DHT22;63966;47.914;22.266;2022-11-30T17:47:54;1.32;83.89
75387;DHT22;63966;47.914;22.266;2022-11-30T17:50:58;1.29;83.62
75387;DHT22;63966;47.914;22.266;2022-11-30T17:54:02;1.28;83.75
75387;DHT22;63966;47.914;22.266;2022-11-30T17:57:06;1.26;83.80
75387;DHT22;63966;47.914;22.266;2022-11-30T18:00:10;1.24;83.88
75387;DHT22;63966;47.914;22.266;2022-11-30T18:03:14;1.21;83.77
75387;DHT22;63966;47.914;22.266;2022-11-30T18:06:18;1.22;84.15
75387;DHT22;63966;47.914;22.266;2022-11-30T18:09:22;1.17;83.89
75387;DHT22;63966;47.914;22.266;2022-11-30T18:12:28;1.18;83.95
75387;DHT22;63966;47.914;22.266;2022-11-30T18:15:32;1.12;83.94
75387;DHT22;63966;47.914;22.266;2022-11-30T18:18:36;1.09;84.19
75387;DHT22;63966;47.914;22.266;2022-11-30T18:21:45;1.05;84.03
75387;DHT22;63966;47.914;22.266;2022-11-30T18:24:48;1.09;83.96
75387;DHT22;63966;47.914;22.266;2022-11-30T18:27:52;0.99;84.32
75387;DHT22;63966;47.914;22.266;2022-11-30T18:30:56;0.94;84.51
75387;DHT22;63966;47.914;22.266;2022-11-30T18:34:03;0.97;84.30
75387;DHT22;63966;47.914;22.266;2022-11-30T18:37:06;0.99;84.07
75387;DHT22;63966;47.914;22.266;2022-11-30T18:40:10;1.02;83.93
75387;DHT22;63966;47.914;22.266;2022-11-30T18:43:14;0.99;83.92
75387;DHT22;63966;47.914;22.266;2022-11-30T18:46:17;0.99;83.85
75387;DHT22;63966;47.914;22.266;2022-11-30T18:49:21;0.91;84.02
75387;DHT22;63966;47.914;22.266;2022-11-30T18:52:26;0.87;84.33
75387;DHT22;63966;47.914;22.266;2022-11-30T18:55:30;0.83;84.47
75387;DHT22;63966;47.914;22.266;2022-11-30T18:58:34;0.85;84.20
75387;DHT22;63966;47.914;22.266;2022-11-30T19:01:38;0.84;84.34
75387;DHT22;63966;47.914;22.266;2022-11-30T19:04:42;0.81;84.46
75387;DHT22;63966;47.914;22.266;2022-11-30T19:07:45;0.71;84.69
75387;DHT22;63966;47.914;22.266;2022-11-30T19:10:49;0.70;84.63
75387;DHT22;63966;47.914;22.266;2022-11-30T19:13:56;0.69;84.54
75387;DHT22;63966;47.914;22.266;2022-11-30T19:17:00;0.70;84.51
75387;DHT22;63966;47.914;22.266;2022-11-30T19:20:05;0.71;84.44
75387;DHT22;63966;47.914;22.266;2022-11-30T19:23:08;0.70;84.30
75387;DHT22;63966;47.914;22.266;2022-11-30T19:26:13;0.69;84.41
75387;DHT22;63966;47.914;22.266;2022-11-30T19:29:17;0.69;84.42
75387;DHT22;63966;47.914;22.266;2022-11-30T19:32:21;0.64;84.47
75387;DHT22;63966;47.914;22.266;2022-11-30T19:35:25;0.66;84.61
75387;DHT22;63966;47.914;22.266;2022-11-30T19:38:29;0.64;84.46
75387;DHT22;63966;47.914;22.266;2022-11-30T19:41:33;0.60;84.83
75387;DHT22;63966;47.914;22.266;2022-11-30T19:44:37;0.64;84.70
75387;DHT22;63966;47.914;22.266;2022-11-30T19:47:41;0.57;85.04
75387;DHT22;63966;47.914;22.266;2022-11-30T19:50:44;0.57;85.02
75387;DHT22;63966;47.914;22.266;2022-11-30T19:53:49;0.59;84.97
75387;DHT22;63966;47.914;22.266;2022-11-30T19:56:58;0.54;85.16
75387;DHT22;63966;47.914;22.266;2022-11-30T20:00:03;0.54;85.12
75387;DHT22;63966;47.914;22.266;2022-11-30T20:03:14;0.59;85.15
75387;DHT22;63966;47.914;22.266;2022-11-30T20:06:19;0.54;85.24
75387;DHT22;63966;47.914;22.266;2022-11-30T20:09:23;0.53;85.31
75387;DHT22;63966;47.914;22.266;2022-11-30T20:12:27;0.50;85.41
75387;DHT22;63966;47.914;22.266;2022-11-30T20:15:30;0.48;85.55
75387;DHT22;63966;47.914;22.266;2022-11-30T20:18:34;0.50;85.49
75387;DHT22;63966;47.914;22.266;2022-11-30T20:21:42;0.52;85.53
75387;DHT22;63966;47.914;22.266;2022-11-30T20:24:46;0.49;85.29
75387;DHT22;63966;47.914;22.266;2022-11-30T20:27:53;0.45;85.71
75387;DHT22;63966;47.914;22.266;2022-11-30T20:31:01;0.36;85.94
75387;DHT22;63966;47.914;22.266;2022-11-30T20:34:05;0.40;85.91
75387;DHT22;63966;47.914;22.266;2022-11-30T20:37:11;0.40;85.83
75387;DHT22;63966;47.914;22.266;2022-11-30T20:40:15;0.43;85.72
75387;DHT22;63966;47.914;22.266;2022-11-30T20:43:18;0.38;85.88
75387;DHT22;63966;47.914;22.266;2022-11-30T20:46:29;0.36;85.93
75387;DHT22;63966;47.914;22.266;2022-11-30T20:49:33;0.35;86.05
75387;DHT22;63966;47.914;22.266;2022-11-30T20:52:37;0.39;85.85
75387;DHT22;63966;47.914;22.266;2022-11-30T20:55:40;0.36;85.89
75387;DHT22;63966;47.914;22.266;2022-11-30T20:58:44;0.33;85.98
75387;DHT22;63966;47.914;22.266;2022-11-30T21:01:48;0.32;86.05
75387;DHT22;63966;47.914;22.266;2022-11-30T21:04:52;0.35;85.82
75387;DHT22;63966;47.914;22.266;2022-11-30T21:07:56;0.42;85.45
75387;DHT22;63966;47.914;22.266;2022-11-30T21:11:04;0.38;85.45
75387;DHT22;63966;47.914;22.266;2022-11-30T21:14:09;0.39;85.41
75387;DHT22;63966;47.914;22.266;2022-11-30T21:17:13;0.38;85.37
75387;DHT22;63966;47.914;22.266;2022-11-30T21:20:17;0.38;85.57
75387;DHT22;63966;47.914;22.266;2022-11-30T21:23:20;0.35;85.65
75387;DHT22;63966;47.914;22.266;2022-11-30T21:26:30;0.45;85.39